createdAt,value
2018-09-01T00:00:21.329Z,21.35
2018-09-01T00:02:51.546Z,21.43
2018-09-01T00:05:20.348Z,21.39
2018-09-01T00:07:49.234Z,21.45
2018-09-01T00:10:18.084Z,21.46
2018-09-01T00:12:47.017Z,21.48
2018-09-01T00:15:15.841Z,21.59
2018-09-01T00:17:44.723Z,21.57
2018-09-01T00:20:13.550Z,21.54
2018-09-01T00:22:42.465Z,21.61
2018-09-01T00:25:11.273Z,21.44
2018-09-01T00:27:40.084Z,21.47
2018-09-01T00:30:09.905Z,21.56
2018-09-01T00:32:38.731Z,21.49
2018-09-01T00:35:07.631Z,21.54
2018-09-01T00:37:41.442Z,21.43
2018-09-01T00:40:10.366Z,21.38
2018-09-01T00:42:39.211Z,21.37
2018-09-01T00:45:08.112Z,21.35
2018-09-01T00:47:36.945Z,21.21
2018-09-01T00:50:05.862Z,21.28
2018-09-01T00:52:34.652Z,21.14
2018-09-01T00:55:03.613Z,21.14
2018-09-01T00:57:32.397Z,21.07
2018-09-01T01:00:01.213Z,21.07
2018-09-01T01:02:30.054Z,20.97
2018-09-01T01:04:58.869Z,20.98
2018-09-01T01:07:27.729Z,20.97
2018-09-01T01:09:56.601Z,20.97
2018-09-01T01:12:25.421Z,20.84
2018-09-01T01:14:54.241Z,20.96
2018-09-01T01:17:23.101Z,20.91
2018-09-01T01:19:51.906Z,20.91
2018-09-01T01:22:20.729Z,20.83
2018-09-01T01:24:49.617Z,20.76
2018-09-01T01:27:18.434Z,20.82
2018-09-01T01:29:47.233Z,20.71
2018-09-01T01:32:16.088Z,20.54
2018-09-01T01:34:44.897Z,20.33
2018-09-01T01:37:13.715Z,20.18
2018-09-01T01:39:42.581Z,20.10
2018-09-01T01:42:11.419Z,20.10
2018-09-01T01:44:40.264Z,20.02
2018-09-01T01:47:09.166Z,20.02
2018-09-01T01:49:38.013Z,19.97
2018-09-01T01:52:06.835Z,20.05
2018-09-01T01:54:35.673Z,20.13
2018-09-01T01:57:04.661Z,20.14
2018-09-01T01:59:33.493Z,20.17
2018-09-01T02:02:02.498Z,20.12
2018-09-01T02:04:31.337Z,20.12
2018-09-01T02:07:00.164Z,20.11
2018-09-01T02:09:29.081Z,20.19
2018-09-01T02:11:57.881Z,20.12
2018-09-01T02:14:26.710Z,20.14
2018-09-01T02:16:55.678Z,20.21
2018-09-01T02:19:24.482Z,20.14
2018-09-01T02:21:53.355Z,20.15
2018-09-01T02:24:22.257Z,20.14
2018-09-01T02:26:51.164Z,20.14
2018-09-01T02:29:19.994Z,20.16
2018-09-01T02:31:50.045Z,20.14
2018-09-01T02:34:19.011Z,20.23
2018-09-01T02:36:47.831Z,20.33
2018-09-01T02:39:17.894Z,20.35
2018-09-01T02:41:46.725Z,20.23
2018-09-01T02:44:15.549Z,20.36
2018-09-01T02:46:44.365Z,20.32
2018-09-01T02:49:13.281Z,20.27
2018-09-01T02:51:42.110Z,20.26
2018-09-01T02:54:10.996Z,20.22
2018-09-01T02:56:39.942Z,20.17
2018-09-01T02:59:08.770Z,20.13
2018-09-01T03:01:38.288Z,20.08
2018-09-01T03:04:09.503Z,20.03
2018-09-01T03:06:57.062Z,20.05
2018-09-01T03:09:26.096Z,20.00
2018-09-01T03:11:55.983Z,19.97
2018-09-01T03:14:25.731Z,19.98
2018-09-01T03:16:55.555Z,19.75
2018-09-01T03:19:25.003Z,19.68
2018-09-01T03:21:54.135Z,19.83
2018-09-01T03:24:22.982Z,19.86
2018-09-01T03:26:51.795Z,19.74
2018-09-01T03:29:20.589Z,19.75
2018-09-01T03:31:50.920Z,19.69
2018-09-01T03:34:19.730Z,19.74
2018-09-01T03:36:48.525Z,19.74
2018-09-01T03:39:17.369Z,19.70
2018-09-01T03:41:46.176Z,19.76
2018-09-01T03:44:15.001Z,19.80
2018-09-01T03:46:50.357Z,19.81
2018-09-01T03:49:19.221Z,19.80
2018-09-01T03:51:48.014Z,19.75
2018-09-01T03:54:16.866Z,19.67
2018-09-01T03:56:45.667Z,19.66
2018-09-01T03:59:14.553Z,19.57
2018-09-01T04:01:44.753Z,19.62
2018-09-01T04:04:13.549Z,19.77
2018-09-01T04:06:42.354Z,19.68
2018-09-01T04:09:11.242Z,19.68
2018-09-01T04:11:40.062Z,19.62
2018-09-01T04:14:08.877Z,19.61
2018-09-01T04:16:37.735Z,19.63
2018-09-01T04:19:16.641Z,19.61
2018-09-01T04:21:46.100Z,19.59
2018-09-01T04:24:15.053Z,19.56
2018-09-01T04:26:44.254Z,19.58
2018-09-01T04:29:13.276Z,19.63
2018-09-01T04:31:42.077Z,19.66
2018-09-01T04:34:10.873Z,19.76
2018-09-01T04:36:39.775Z,19.81
2018-09-01T04:39:10.204Z,22.02
2018-09-01T04:41:39.420Z,23.76
2018-09-01T04:44:08.225Z,24.93
2018-09-01T04:46:37.131Z,24.83
2018-09-01T04:49:06.035Z,25.09
2018-09-01T04:51:34.880Z,24.70
2018-09-01T04:54:03.777Z,25.01
2018-09-01T04:56:32.583Z,24.63
2018-09-01T04:59:01.413Z,24.67
2018-09-01T05:01:30.326Z,24.53
2018-09-01T05:03:59.113Z,24.12
2018-09-01T05:06:28.006Z,24.43
2018-09-01T05:08:56.849Z,24.69
2018-09-01T05:11:25.636Z,24.03
2018-09-01T05:13:54.433Z,24.03
2018-09-01T05:16:24.904Z,24.28
2018-09-01T05:18:53.781Z,23.81
2018-09-01T05:21:22.599Z,23.86
2018-09-01T05:23:52.708Z,23.85
2018-09-01T05:26:21.711Z,23.89
2018-09-01T05:28:50.634Z,23.83
2018-09-01T05:31:19.491Z,23.76
2018-09-01T05:33:54.898Z,23.79
2018-09-01T05:36:23.784Z,23.72
2018-09-01T05:38:52.578Z,23.91
2018-09-01T05:41:21.639Z,24.24
2018-09-01T05:43:50.655Z,24.39
2018-09-01T05:46:19.486Z,24.56
2018-09-01T05:48:48.393Z,24.40
2018-09-01T05:51:17.234Z,24.56
2018-09-01T05:53:46.080Z,24.57
2018-09-01T05:56:14.956Z,24.60
2018-09-01T05:58:43.744Z,24.69
2018-09-01T06:01:12.693Z,24.91
2018-09-01T06:03:41.683Z,24.87
2018-09-01T06:06:10.583Z,25.16
2018-09-01T06:08:39.348Z,25.33
2018-09-01T06:11:09.421Z,25.52
2018-09-01T06:13:38.241Z,25.78
2018-09-01T06:16:07.089Z,25.84
2018-09-01T06:18:35.913Z,25.60
2018-09-01T06:21:04.829Z,25.61
2018-09-01T06:23:33.628Z,25.54
2018-09-01T06:26:02.468Z,25.29
2018-09-01T06:28:34.790Z,25.12
2018-09-01T06:31:03.689Z,25.09
2018-09-01T06:33:32.536Z,25.07
2018-09-01T06:36:02.644Z,25.16
2018-09-01T06:38:31.447Z,25.37
2018-09-01T06:41:00.281Z,25.73
2018-09-01T06:43:29.173Z,25.63
2018-09-01T06:45:59.262Z,25.69
2018-09-01T06:48:28.090Z,25.76
2018-09-01T06:50:56.886Z,25.88
2018-09-01T06:53:25.737Z,26.11
2018-09-01T06:55:54.725Z,26.29
2018-09-01T06:58:23.566Z,26.61
2018-09-01T07:00:53.819Z,26.71
2018-09-01T07:03:22.673Z,26.56
2018-09-01T07:05:51.540Z,26.84
2018-09-01T07:08:20.453Z,26.84
2018-09-01T07:10:49.263Z,27.03
2018-09-01T07:13:18.118Z,27.50
2018-09-01T07:15:46.989Z,27.63
2018-09-01T07:18:15.853Z,27.68
2018-09-01T07:20:44.665Z,27.87
2018-09-01T07:23:13.566Z,28.18
2018-09-01T07:25:42.407Z,28.45
2018-09-01T07:28:11.250Z,28.64
2018-09-01T07:30:40.239Z,28.60
2018-09-01T07:33:09.034Z,28.76
2018-09-01T07:35:37.963Z,29.04
2018-09-01T07:38:06.888Z,29.15
2018-09-01T07:40:35.719Z,29.33
2018-09-01T07:43:04.643Z,29.50
2018-09-01T07:45:33.502Z,29.47
2018-09-01T07:48:03.541Z,29.55
2018-09-01T07:50:32.439Z,29.69
2018-09-01T07:53:01.249Z,29.88
2018-09-01T07:55:30.170Z,29.92
2018-09-01T07:57:58.969Z,30.07
2018-09-01T08:00:27.934Z,30.18
2018-09-01T08:02:56.844Z,30.10
2018-09-01T08:05:25.665Z,30.36
2018-09-01T08:07:54.498Z,30.57
2018-09-01T08:10:24.646Z,30.56
2018-09-01T08:12:53.602Z,30.51
2018-09-01T08:15:22.531Z,30.63
2018-09-01T08:17:51.533Z,30.64
2018-09-01T08:20:20.511Z,30.31
2018-09-01T08:22:49.481Z,30.67
2018-09-01T08:25:18.592Z,30.75
2018-09-01T08:27:47.574Z,30.98
2018-09-01T08:30:17.837Z,30.97
2018-09-01T08:32:46.768Z,31.10
2018-09-01T08:35:15.629Z,31.24
2018-09-01T08:37:44.653Z,31.39
2018-09-01T08:40:13.522Z,31.42
2018-09-01T08:42:42.823Z,31.30
2018-09-01T08:45:11.775Z,31.51
2018-09-01T08:47:40.761Z,31.55
2018-09-01T08:50:10.954Z,31.62
2018-09-01T08:52:39.921Z,31.73
2018-09-01T08:55:08.784Z,31.66
2018-09-01T08:57:39.083Z,31.22
2018-09-01T09:00:09.691Z,31.45
2018-09-01T09:02:38.603Z,31.49
2018-09-01T09:05:07.629Z,31.87
2018-09-01T09:07:36.735Z,31.93
2018-09-01T09:10:05.902Z,32.03
2018-09-01T09:12:34.843Z,32.20
2018-09-01T09:15:03.802Z,32.13
2018-09-01T09:17:32.752Z,32.07
2018-09-01T09:20:01.561Z,32.00
2018-09-01T09:22:30.497Z,31.95
2018-09-01T09:24:59.358Z,31.76
2018-09-01T09:27:28.241Z,31.76
2018-09-01T09:29:57.183Z,31.58
2018-09-01T09:32:26.063Z,31.14
2018-09-01T09:34:54.889Z,30.90
2018-09-01T09:37:23.720Z,30.77
2018-09-01T09:40:19.833Z,30.56
2018-09-01T09:42:48.709Z,30.71
2018-09-01T09:45:17.533Z,30.69
2018-09-01T09:47:46.331Z,30.65
2018-09-01T09:50:15.197Z,30.65
2018-09-01T09:52:44.000Z,30.62
2018-09-01T09:55:12.925Z,30.54
2018-09-01T09:57:41.873Z,30.28
2018-09-01T10:00:11.200Z,30.62
2018-09-01T10:02:40.216Z,30.52
2018-09-01T10:05:09.416Z,30.35
2018-09-01T10:07:38.321Z,29.92
2018-09-01T10:10:07.316Z,30.10
2018-09-01T10:12:36.170Z,30.12
2018-09-01T10:15:05.122Z,30.16
2018-09-01T10:17:33.993Z,30.10
2018-09-01T10:20:02.948Z,30.13
2018-09-01T10:22:31.786Z,30.01
2018-09-01T10:25:00.608Z,30.00
2018-09-01T10:27:29.446Z,30.02
2018-09-01T10:30:17.866Z,30.10
2018-09-01T10:32:49.452Z,30.22
2018-09-01T10:35:19.859Z,30.18
2018-09-01T10:37:51.694Z,30.21
2018-09-01T10:40:24.506Z,30.34
2018-09-01T10:42:59.193Z,30.44
2018-09-01T10:45:34.348Z,30.36
2018-09-01T10:48:05.295Z,30.30
2018-09-01T10:50:34.909Z,30.48
2018-09-01T10:53:07.235Z,30.51
2018-09-01T10:55:37.769Z,30.69
2018-09-01T10:58:07.352Z,30.64
2018-09-01T11:00:41.097Z,30.68
2018-09-01T11:03:42.747Z,30.73
2018-09-01T11:06:13.525Z,30.48
2018-09-01T11:08:44.424Z,30.68
2018-09-01T11:11:17.293Z,30.76
2018-09-01T11:13:48.524Z,30.75
2018-09-01T11:16:19.486Z,30.71
2018-09-01T11:18:51.351Z,30.69
2018-09-01T11:21:22.800Z,30.63
2018-09-01T11:23:53.093Z,30.39
2018-09-01T11:26:22.561Z,30.50
2018-09-01T11:28:54.980Z,30.81
2018-09-01T11:31:25.059Z,30.76
2018-09-01T11:33:54.589Z,30.74
2018-09-01T11:36:25.184Z,30.53
2018-09-01T11:38:58.182Z,30.42
2018-09-01T11:41:34.304Z,30.31
2018-09-01T11:44:04.415Z,30.53
2018-09-01T11:46:42.371Z,30.63
2018-09-01T11:49:13.904Z,30.48
2018-09-01T11:51:48.014Z,30.39
2018-09-01T11:54:19.416Z,29.95
2018-09-01T11:56:49.006Z,30.44
2018-09-01T11:59:19.879Z,30.23
2018-09-01T12:01:51.420Z,30.03
2018-09-01T12:04:23.468Z,30.37
2018-09-01T12:06:53.131Z,30.35
2018-09-01T12:09:24.804Z,30.31
2018-09-01T12:11:57.781Z,30.16
2018-09-01T12:14:33.422Z,30.37
2018-09-01T12:17:03.716Z,30.27
2018-09-01T12:19:35.350Z,30.34
2018-09-01T12:22:07.487Z,30.44
2018-09-01T12:24:42.038Z,30.50
2018-09-01T12:27:12.180Z,30.66
2018-09-01T12:29:42.678Z,30.83
2018-09-01T12:32:12.611Z,30.56
2018-09-01T12:34:42.684Z,30.55
2018-09-01T12:37:14.264Z,30.50
2018-09-01T12:39:44.579Z,30.48
2018-09-01T12:42:16.021Z,30.61
2018-09-01T12:44:50.691Z,30.73
2018-09-01T12:47:21.339Z,31.20
2018-09-01T12:49:56.636Z,32.17
2018-09-01T12:52:26.791Z,33.66
2018-09-01T12:55:03.820Z,34.59
2018-09-01T12:57:34.522Z,35.84
2018-09-01T13:00:06.122Z,35.28
2018-09-01T13:02:43.081Z,35.32
2018-09-01T13:05:14.483Z,36.21
2018-09-01T13:07:45.603Z,34.94
2018-09-01T13:10:17.829Z,35.14
2018-09-01T13:12:48.161Z,34.71
2018-09-01T13:15:23.251Z,35.51
2018-09-01T13:17:54.525Z,35.31
2018-09-01T13:20:23.899Z,35.72
2018-09-01T13:22:57.361Z,36.39
2018-09-01T13:25:27.563Z,36.19
2018-09-01T13:27:58.345Z,36.52
2018-09-01T13:30:31.595Z,35.91
2018-09-01T13:33:02.766Z,36.09
2018-09-01T13:35:35.121Z,36.13
2018-09-01T13:38:06.223Z,35.35
2018-09-01T13:40:39.697Z,35.47
2018-09-01T13:43:11.589Z,35.97
2018-09-01T13:45:42.883Z,36.27
2018-09-01T13:48:15.346Z,35.80
2018-09-01T13:50:45.572Z,35.45
2018-09-01T13:53:17.560Z,35.35
2018-09-01T14:02:54.276Z,35.56
2018-09-01T14:05:27.384Z,34.94
2018-09-01T14:07:57.449Z,35.02
2018-09-01T14:10:28.355Z,35.24
2018-09-01T14:13:00.400Z,34.60
2018-09-01T14:15:32.490Z,35.39
2018-09-01T14:18:05.060Z,35.08
2018-09-01T14:20:35.477Z,35.16
2018-09-01T14:23:06.779Z,34.72
2018-09-01T14:25:36.510Z,34.97
2018-09-01T14:28:07.729Z,34.65
2018-09-01T14:30:40.499Z,34.65
2018-09-01T14:33:12.074Z,34.72
2018-09-01T14:35:42.995Z,34.71
2018-09-01T14:38:12.429Z,34.01
2018-09-01T14:40:43.826Z,33.30
2018-09-01T14:43:13.178Z,34.34
2018-09-01T14:45:47.720Z,34.38
2018-09-01T14:48:24.029Z,33.95
2018-09-01T14:50:54.377Z,34.02
2018-09-01T14:53:24.560Z,33.78
2018-09-01T14:55:57.571Z,33.13
2018-09-01T14:58:30.205Z,33.32
2018-09-01T15:00:59.707Z,33.81
2018-09-01T15:03:30.494Z,33.83
2018-09-01T15:05:59.935Z,34.29
2018-09-01T15:08:38.595Z,34.64
2018-09-01T15:11:10.714Z,33.77
2018-09-01T15:13:42.317Z,34.26
2018-09-01T15:16:16.851Z,34.32
2018-09-01T15:18:53.918Z,34.43
2018-09-01T15:21:25.227Z,34.01
2018-09-01T15:23:55.485Z,34.25
2018-09-01T15:26:26.183Z,34.38
2018-09-01T15:28:56.884Z,33.95
2018-09-01T15:31:28.359Z,32.95
2018-09-01T15:34:04.596Z,33.66
2018-09-01T15:36:36.110Z,33.12
2018-09-01T15:39:09.688Z,32.35
2018-09-01T15:41:42.848Z,32.32
2018-09-01T15:44:17.247Z,31.99
2018-09-01T15:46:48.772Z,31.64
2018-09-01T15:49:18.863Z,31.57
2018-09-01T15:51:48.886Z,31.19
2018-09-01T15:54:19.069Z,31.06
2018-09-01T15:56:54.282Z,30.89
2018-09-01T15:59:25.947Z,30.88
2018-09-01T16:01:56.407Z,30.60
2018-09-01T16:11:16.449Z,29.57
2018-09-01T16:13:49.411Z,29.59
2018-09-01T16:16:20.352Z,29.48
2018-09-01T16:18:50.909Z,28.92
2018-09-01T16:21:21.704Z,28.74
2018-09-01T16:23:51.930Z,28.50
2018-09-01T16:26:22.896Z,28.43
2018-09-01T16:28:55.145Z,28.30
2018-09-01T16:31:32.355Z,28.21
2018-09-01T16:34:04.977Z,27.93
2018-09-01T16:36:38.813Z,27.86
2018-09-01T16:39:08.794Z,27.78
2018-09-01T16:41:43.937Z,27.66
2018-09-01T16:44:15.417Z,27.48
2018-09-01T16:46:45.785Z,27.39
2018-09-01T16:49:20.450Z,27.27
2018-09-01T16:51:53.614Z,27.18
2018-09-01T16:54:23.722Z,27.15
2018-09-01T16:56:54.546Z,27.13
2018-09-01T16:59:28.204Z,27.04
2018-09-01T17:02:00.758Z,27.04
2018-09-01T17:04:30.330Z,26.97
2018-09-01T17:07:00.704Z,26.92
2018-09-01T17:09:31.539Z,26.90
2018-09-01T17:12:03.308Z,26.88
2018-09-01T17:14:33.804Z,26.80
2018-09-01T17:17:05.457Z,26.80
2018-09-01T17:19:36.845Z,26.75
2018-09-01T17:22:08.561Z,26.77
2018-09-01T17:24:39.023Z,26.70
2018-09-01T17:27:10.041Z,26.67
2018-09-01T17:29:39.560Z,26.62
2018-09-01T17:32:11.723Z,26.58
2018-09-01T17:34:43.036Z,26.53
2018-09-01T17:37:12.523Z,26.53
2018-09-01T17:39:45.360Z,26.08
2018-09-01T17:42:14.288Z,26.51
2018-09-01T17:44:43.167Z,26.51
2018-09-01T17:47:12.106Z,26.50
2018-09-01T17:49:40.994Z,26.44
2018-09-01T17:52:09.829Z,26.47
2018-09-01T17:54:38.818Z,26.35
2018-09-01T17:57:07.678Z,26.36
2018-09-01T17:59:36.499Z,26.34
2018-09-01T18:02:05.571Z,26.32
2018-09-01T18:04:34.397Z,26.38
2018-09-01T18:07:03.220Z,26.39
2018-09-01T18:09:32.162Z,26.38
2018-09-01T18:12:01.102Z,26.32
2018-09-01T18:14:30.038Z,26.43
2018-09-01T18:16:58.892Z,26.44
2018-09-01T18:19:27.810Z,26.41
2018-09-01T18:21:56.646Z,26.40
2018-09-01T18:24:25.687Z,26.33
2018-09-01T18:26:54.603Z,26.36
2018-09-01T18:29:23.489Z,26.30
2018-09-01T18:31:52.343Z,26.31
2018-09-01T18:34:21.347Z,26.26
2018-09-01T18:36:50.220Z,26.29
2018-09-01T18:39:20.410Z,26.24
2018-09-01T18:41:50.804Z,26.25
2018-09-01T18:44:20.793Z,26.23
2018-09-01T18:46:49.770Z,26.25
2018-09-01T18:49:18.680Z,26.24
2018-09-01T18:51:47.660Z,26.31
2018-09-01T18:54:17.878Z,26.38
2018-09-01T18:56:46.756Z,26.37
2018-09-01T18:59:15.763Z,26.47
2018-09-01T19:01:46.208Z,26.44
2018-09-01T19:04:15.059Z,26.36
2018-09-01T19:06:43.866Z,26.35
2018-09-01T19:09:12.801Z,26.32
2018-09-01T19:11:41.637Z,26.30
2018-09-01T19:14:10.647Z,26.26
2018-09-01T19:16:39.433Z,26.27
2018-09-01T19:19:08.304Z,26.19
2018-09-01T19:21:37.158Z,25.75
2018-09-01T19:24:07.453Z,25.59
2018-09-01T19:26:36.312Z,25.49
2018-09-01T19:29:05.229Z,25.33
2018-09-01T19:31:34.243Z,25.12
2018-09-01T19:34:03.309Z,24.88
2018-09-01T19:36:32.172Z,24.82
2018-09-01T19:39:01.132Z,24.78
2018-09-01T19:41:30.148Z,24.84
2018-09-01T19:44:00.232Z,24.82
2018-09-01T19:46:29.133Z,24.80
2018-09-01T19:48:57.978Z,24.85
2018-09-01T19:51:26.927Z,24.85
2018-09-01T19:53:57.038Z,24.65
2018-09-01T19:56:25.920Z,24.30
2018-09-01T19:58:54.726Z,24.37
2018-09-01T20:01:23.739Z,24.38
2018-09-01T20:03:52.626Z,24.60
2018-09-01T20:06:21.433Z,24.69
2018-09-01T20:08:51.817Z,24.63
2018-09-01T20:11:20.660Z,24.57
2018-09-01T20:13:49.849Z,24.56
2018-09-01T20:16:18.757Z,24.25
2018-09-01T20:18:47.620Z,24.07
2018-09-01T20:21:16.542Z,24.12
2018-09-01T20:23:46.633Z,23.90
2018-09-01T20:26:15.602Z,23.84
2018-09-01T20:28:44.491Z,23.90
2018-09-01T20:31:13.542Z,23.58
2018-09-01T20:33:42.432Z,23.50
2018-09-01T20:36:15.204Z,23.47
2018-09-01T20:38:44.349Z,23.55
2018-09-01T20:41:13.199Z,23.67
2018-09-01T20:43:43.278Z,23.67
2018-09-01T20:46:12.173Z,23.62
2018-09-01T20:48:41.072Z,23.44
2018-09-01T20:51:09.990Z,23.44
2018-09-01T20:53:38.873Z,23.62
2018-09-01T20:56:07.806Z,23.65
2018-09-01T20:58:36.704Z,23.71
2018-09-01T21:01:05.608Z,23.64
2018-09-01T21:03:34.476Z,23.74
2018-09-01T21:06:03.344Z,23.70
2018-09-01T21:08:32.160Z,23.66
2018-09-01T21:11:01.026Z,23.68
2018-09-01T21:13:29.930Z,23.69
2018-09-01T21:18:32.977Z,23.62
2018-09-01T21:21:01.813Z,23.57
2018-09-01T21:23:30.672Z,23.69
2018-09-01T21:25:59.565Z,23.88
2018-09-01T21:28:28.407Z,23.89
2018-09-01T21:30:57.259Z,23.95
2018-09-01T21:33:26.172Z,24.21
2018-09-01T21:35:55.301Z,24.50
2018-09-01T21:38:24.157Z,24.28
2018-09-01T21:40:53.048Z,24.21
2018-09-01T21:43:21.901Z,24.24
2018-09-01T21:45:50.786Z,24.50
2018-09-01T21:48:19.684Z,24.65
2018-09-01T21:50:48.528Z,24.67
2018-09-01T21:53:17.317Z,24.48
2018-09-01T21:55:46.265Z,24.15
2018-09-01T21:58:15.062Z,23.95
2018-09-01T22:00:50.407Z,23.82
2018-09-01T22:03:20.327Z,23.77
2018-09-01T22:05:49.194Z,23.85
2018-09-01T22:08:18.089Z,24.05
2018-09-01T22:10:47.009Z,24.16
2018-09-01T22:13:15.829Z,24.41
2018-09-01T22:15:44.669Z,24.27
2018-09-01T22:18:13.456Z,24.27
2018-09-01T22:20:42.263Z,24.13
2018-09-01T22:23:11.113Z,23.88
2018-09-01T22:25:39.930Z,23.58
2018-09-01T22:28:08.735Z,23.41
2018-09-01T22:30:37.568Z,23.31
2018-09-01T22:33:06.602Z,23.24
2018-09-01T22:35:35.499Z,23.03
2018-09-01T22:38:04.490Z,23.07
2018-09-01T22:40:33.313Z,22.87
2018-09-01T22:43:02.279Z,22.71
2018-09-01T22:45:31.171Z,22.53
2018-09-01T22:48:00.010Z,22.42
2018-09-01T22:50:28.851Z,22.23
2018-09-01T22:52:59.009Z,22.23
2018-09-01T22:55:27.829Z,22.18
2018-09-01T22:57:56.630Z,22.11
2018-09-01T23:00:25.491Z,22.24
2018-09-01T23:02:54.273Z,22.17
2018-09-01T23:05:23.101Z,22.12
2018-09-01T23:07:51.973Z,22.12
2018-09-01T23:10:20.810Z,22.19
2018-09-01T23:12:49.626Z,22.30
2018-09-01T23:15:19.872Z,22.43
2018-09-01T23:17:48.688Z,22.55
2018-09-01T23:20:17.643Z,22.61
2018-09-01T23:22:46.754Z,22.62
2018-09-01T23:25:15.578Z,22.69
2018-09-01T23:27:44.369Z,22.64
2018-09-01T23:30:14.440Z,22.64
2018-09-01T23:32:43.335Z,22.63
2018-09-01T23:35:12.119Z,22.72
2018-09-01T23:37:40.978Z,22.65
2018-09-01T23:40:09.770Z,22.50
2018-09-01T23:42:38.661Z,22.42
2018-09-01T23:45:07.558Z,22.46
2018-09-01T23:47:36.333Z,22.40
2018-09-01T23:50:05.541Z,22.44
2018-09-01T23:52:34.343Z,22.60
2018-09-01T23:55:03.245Z,22.63
2018-09-01T23:57:32.070Z,22.75
